sensor_id;sensor_type;location;lat;lon;timestamp;temperature;humidity
23669;DHT22;12011;47.422;15.018;2023-03-01T00:01:46;0.40;99.90
23669;DHT22;12011;47.422;15.018;2023-03-01T00:04:20;-0.60;99.90
23669;DHT22;12011;47.422;15.018;2023-03-01T00:06:51;0.90;99.90
23669;DHT22;12011;47.422;15.018;2023-03-01T00:09:22;-1.50;99.90
23669;DHT22;12011;47.422;15.018;2023-03-01T00:11:53;-1.70;99.90
23669;DHT22;12011;47.422;15.018;2023-03-01T00:14:23;-0.30;99.90
23669;DHT22;12011;47.422;15.018;2023-03-01T00:16:56;0.80;99.90
23669;DHT22;12011;47.422;15.018;2023-03-01T00:19:27;0.50;99.90
23669;DHT22;12011;47.422;15.018;2023-03-01T00:21:59;-1.00;99.90
23669;DHT22;12011;47.422;15.018;2023-03-01T00:24:33;-1.10;99.90
23669;DHT22;12011;47.422;15.018;2023-03-01T00:27:03;0.20;99.90
23669;DHT22;12011;47.422;15.018;2023-03-01T00:29:36;0.00;99.90
23669;DHT22;12011;47.422;15.018;2023-03-01T00:32:08;-0.90;99.90
23669;DHT22;12011;47.422;15.018;2023-03-01T00:34:45;-1.10;99.90
23669;DHT22;12011;47.422;15.018;2023-03-01T00:37:22;-1.30;99.90
23669;DHT22;12011;47.422;15.018;2023-03-01T00:39:54;1.60;99.90
23669;DHT22;12011;47.422;15.018;2023-03-01T00:45:07;1.30;99.90
23669;DHT22;12011;47.422;15.018;2023-03-01T00:47:45;-0.80;99.90
23669;DHT22;12011;47.422;15.018;2023-03-01T00:50:18;1.30;99.90
23669;DHT22;12011;47.422;15.018;2023-03-01T00:52:55;1.20;99.90
23669;DHT22;12011;47.422;15.018;2023-03-01T00:55:28;0.00;99.90
23669;DHT22;12011;47.422;15.018;2023-03-01T00:57:59;-0.60;99.90
23669;DHT22;12011;47.422;15.018;2023-03-01T01:00:33;0.90;99.90
23669;DHT22;12011;47.422;15.018;2023-03-01T01:03:08;-0.80;99.90
23669;DHT22;12011;47.422;15.018;2023-03-01T01:05:37;0.90;99.90
23669;DHT22;12011;47.422;15.018;2023-03-01T01:08:12;1.20;99.90
23669;DHT22;12011;47.422;15.018;2023-03-01T01:10:43;-0.40;99.90
23669;DHT22;12011;47.422;15.018;2023-03-01T01:13:15;-0.20;99.90
23669;DHT22;12011;47.422;15.018;2023-03-01T01:15:48;0.30;99.90
23669;DHT22;12011;47.422;15.018;2023-03-01T01:18:22;0.10;99.90
23669;DHT22;12011;47.422;15.018;2023-03-01T01:20:56;-0.70;99.90
23669;DHT22;12011;47.422;15.018;2023-03-01T01:23:27;-0.90;99.90
23669;DHT22;12011;47.422;15.018;2023-03-01T01:26:07;1.00;99.90
23669;DHT22;12011;47.422;15.018;2023-03-01T01:28:42;-0.50;99.90
23669;DHT22;12011;47.422;15.018;2023-03-01T01:31:19;0.80;99.90
23669;DHT22;12011;47.422;15.018;2023-03-01T01:34:12;0.40;99.90
23669;DHT22;12011;47.422;15.018;2023-03-01T01:36:50;-1.00;99.90
23669;DHT22;12011;47.422;15.018;2023-03-01T01:39:23;2.30;99.90
23669;DHT22;12011;47.422;15.018;2023-03-01T01:41:56;1.20;99.90
23669;DHT22;12011;47.422;15.018;2023-03-01T01:44:29;1.30;99.90
23669;DHT22;12011;47.422;15.018;2023-03-01T01:47:08;-1.80;99.90
23669;DHT22;12011;47.422;15.018;2023-03-01T01:49:52;-1.10;99.90
23669;DHT22;12011;47.422;15.018;2023-03-01T01:52:29;-1.00;99.90
23669;DHT22;12011;47.422;15.018;2023-03-01T01:55:08;1.30;99.90
23669;DHT22;12011;47.422;15.018;2023-03-01T01:57:44;-1.10;99.90
23669;DHT22;12011;47.422;15.018;2023-03-01T02:00:22;0.30;99.90
23669;DHT22;12011;47.422;15.018;2023-03-01T02:03:09;-1.70;99.90
23669;DHT22;12011;47.422;15.018;2023-03-01T02:05:51;-1.40;99.90
23669;DHT22;12011;47.422;15.018;2023-03-01T02:08:29;-1.10;99.90
23669;DHT22;12011;47.422;15.018;2023-03-01T02:11:01;0.10;99.90
23669;DHT22;12011;47.422;15.018;2023-03-01T02:13:37;1.10;99.90
23669;DHT22;12011;47.422;15.018;2023-03-01T02:16:12;0.10;99.90
23669;DHT22;12011;47.422;15.018;2023-03-01T02:18:46;1.10;99.90
23669;DHT22;12011;47.422;15.018;2023-03-01T02:21:30;0.50;99.90
23669;DHT22;12011;47.422;15.018;2023-03-01T02:24:23;1.60;99.90
23669;DHT22;12011;47.422;15.018;2023-03-01T02:27:03;-1.30;99.90
23669;DHT22;12011;47.422;15.018;2023-03-01T02:29:36;-0.60;99.90
23669;DHT22;12011;47.422;15.018;2023-03-01T02:32:08;2.00;99.90
23669;DHT22;12011;47.422;15.018;2023-03-01T02:34:40;1.40;99.90
23669;DHT22;12011;47.422;15.018;2023-03-01T02:37:15;-1.40;99.90
23669;DHT22;12011;47.422;15.018;2023-03-01T02:39:59;1.90;99.90
23669;DHT22;12011;47.422;15.018;2023-03-01T02:42:49;1.20;99.90
23669;DHT22;12011;47.422;15.018;2023-03-01T02:45:24;-0.70;99.90
23669;DHT22;12011;47.422;15.018;2023-03-01T02:47:58;0.30;99.90
23669;DHT22;12011;47.422;15.018;2023-03-01T02:50:50;1.90;99.90
23669;DHT22;12011;47.422;15.018;2023-03-01T02:53:39;1.10;99.90
23669;DHT22;12011;47.422;15.018;2023-03-01T02:56:20;1.40;99.90
23669;DHT22;12011;47.422;15.018;2023-03-01T02:58:54;-0.70;99.90
23669;DHT22;12011;47.422;15.018;2023-03-01T03:01:31;0.80;99.90
23669;DHT22;12011;47.422;15.018;2023-03-01T03:04:15;0.10;99.90
23669;DHT22;12011;47.422;15.018;2023-03-01T03:06:53;-0.80;99.90
23669;DHT22;12011;47.422;15.018;2023-03-01T03:09:27;-0.90;99.90
23669;DHT22;12011;47.422;15.018;2023-03-01T03:11:59;1.60;99.90
23669;DHT22;12011;47.422;15.018;2023-03-01T03:14:29;0.30;99.90
23669;DHT22;12011;47.422;15.018;2023-03-01T03:17:07;1.00;99.90
23669;DHT22;12011;47.422;15.018;2023-03-01T03:19:39;-1.10;99.90
23669;DHT22;12011;47.422;15.018;2023-03-01T03:22:18;-1.20;99.90
23669;DHT22;12011;47.422;15.018;2023-03-01T03:24:51;-1.20;99.90
23669;DHT22;12011;47.422;15.018;2023-03-01T03:27:23;2.50;99.90
23669;DHT22;12011;47.422;15.018;2023-03-01T03:29:55;1.00;99.90
23669;DHT22;12011;47.422;15.018;2023-03-01T03:32:27;-0.60;99.90
23669;DHT22;12011;47.422;15.018;2023-03-01T03:34:58;2.00;99.90
23669;DHT22;12011;47.422;15.018;2023-03-01T03:37:30;1.50;99.90
23669;DHT22;12011;47.422;15.018;2023-03-01T03:40:13;1.30;99.90
23669;DHT22;12011;47.422;15.018;2023-03-01T03:42:47;-0.60;99.90
23669;DHT22;12011;47.422;15.018;2023-03-01T03:45:27;-0.10;99.90
23669;DHT22;12011;47.422;15.018;2023-03-01T03:48:04;2.40;99.90
23669;DHT22;12011;47.422;15.018;2023-03-01T03:50:39;-0.60;99.90
23669;DHT22;12011;47.422;15.018;2023-03-01T03:53:12;0.60;99.90
23669;DHT22;12011;47.422;15.018;2023-03-01T03:55:46;1.50;99.90
23669;DHT22;12011;47.422;15.018;2023-03-01T03:58:25;0.20;99.90
23669;DHT22;12011;47.422;15.018;2023-03-01T04:01:03;0.90;99.90
23669;DHT22;12011;47.422;15.018;2023-03-01T04:03:41;-1.00;99.90
23669;DHT22;12011;47.422;15.018;2023-03-01T04:06:16;-3.10;99.90
23669;DHT22;12011;47.422;15.018;2023-03-01T04:08:51;-1.30;99.90
23669;DHT22;12011;47.422;15.018;2023-03-01T04:11:28;2.60;99.90
23669;DHT22;12011;47.422;15.018;2023-03-01T04:14:02;0.70;99.90
23669;DHT22;12011;47.422;15.018;2023-03-01T04:16:33;2.50;99.90
23669;DHT22;12011;47.422;15.018;2023-03-01T04:19:06;-1.10;99.90
23669;DHT22;12011;47.422;15.018;2023-03-01T04:21:37;-0.70;99.90
23669;DHT22;12011;47.422;15.018;2023-03-01T04:24:09;-0.70;99.90
23669;DHT22;12011;47.422;15.018;2023-03-01T04:26:42;0.00;99.90
23669;DHT22;12011;47.422;15.018;2023-03-01T04:29:17;0.00;99.90
23669;DHT22;12011;47.422;15.018;2023-03-01T04:31:54;1.10;99.90
23669;DHT22;12011;47.422;15.018;2023-03-01T04:34:30;1.10;99.90
23669;DHT22;12011;47.422;15.018;2023-03-01T04:37:00;-0.50;99.90
23669;DHT22;12011;47.422;15.018;2023-03-01T04:39:30;-1.10;99.90
23669;DHT22;12011;47.422;15.018;2023-03-01T04:42:15;-0.50;99.90
23669;DHT22;12011;47.422;15.018;2023-03-01T04:44:54;1.00;99.90
23669;DHT22;12011;47.422;15.018;2023-03-01T04:47:28;-0.80;99.90
23669;DHT22;12011;47.422;15.018;2023-03-01T04:50:08;0.90;99.90
23669;DHT22;12011;47.422;15.018;2023-03-01T04:52:44;-0.80;99.90
23669;DHT22;12011;47.422;15.018;2023-03-01T04:55:16;0.40;99.90
23669;DHT22;12011;47.422;15.018;2023-03-01T04:57:45;-0.90;99.90
23669;DHT22;12011;47.422;15.018;2023-03-01T05:00:19;1.10;99.90
23669;DHT22;12011;47.422;15.018;2023-03-01T05:02:53;-1.30;99.90
23669;DHT22;12011;47.422;15.018;2023-03-01T05:05:33;1.50;99.90
23669;DHT22;12011;47.422;15.018;2023-03-01T05:08:07;-0.40;99.90
23669;DHT22;12011;47.422;15.018;2023-03-01T05:10:46;1.70;99.90
23669;DHT22;12011;47.422;15.018;2023-03-01T05:13:19;2.10;99.90
23669;DHT22;12011;47.422;15.018;2023-03-01T05:15:55;2.30;99.90
23669;DHT22;12011;47.422;15.018;2023-03-01T05:18:29;0.40;99.90
23669;DHT22;12011;47.422;15.018;2023-03-01T05:21:06;-0.60;99.90
23669;DHT22;12011;47.422;15.018;2023-03-01T05:23:44;0.00;99.90
23669;DHT22;12011;47.422;15.018;2023-03-01T05:26:17;0.80;99.90
23669;DHT22;12011;47.422;15.018;2023-03-01T05:28:48;1.70;99.90
23669;DHT22;12011;47.422;15.018;2023-03-01T05:31:18;1.30;99.90
23669;DHT22;12011;47.422;15.018;2023-03-01T05:33:53;1.00;99.90
23669;DHT22;12011;47.422;15.018;2023-03-01T05:36:26;0.90;99.90
23669;DHT22;12011;47.422;15.018;2023-03-01T05:38:58;2.00;99.90
23669;DHT22;12011;47.422;15.018;2023-03-01T05:41:37;0.40;99.90
23669;DHT22;12011;47.422;15.018;2023-03-01T05:44:09;-0.10;99.90
23669;DHT22;12011;47.422;15.018;2023-03-01T05:46:40;-0.40;99.90
23669;DHT22;12011;47.422;15.018;2023-03-01T05:49:11;1.90;99.90
23669;DHT22;12011;47.422;15.018;2023-03-01T05:51:53;2.20;99.90
23669;DHT22;12011;47.422;15.018;2023-03-01T05:54:25;-0.20;99.90
23669;DHT22;12011;47.422;15.018;2023-03-01T05:57:01;0.40;99.90
23669;DHT22;12011;47.422;15.018;2023-03-01T05:59:33;0.00;99.90
23669;DHT22;12011;47.422;15.018;2023-03-01T06:02:06;-1.10;99.90
23669;DHT22;12011;47.422;15.018;2023-03-01T06:04:41;-0.60;99.90
23669;DHT22;12011;47.422;15.018;2023-03-01T06:07:14;-0.20;99.90
23669;DHT22;12011;47.422;15.018;2023-03-01T06:09:45;1.90;99.90
23669;DHT22;12011;47.422;15.018;2023-03-01T06:12:21;0.50;99.90
23669;DHT22;12011;47.422;15.018;2023-03-01T06:14:51;0.10;99.90
23669;DHT22;12011;47.422;15.018;2023-03-01T06:17:30;0.10;99.90
23669;DHT22;12011;47.422;15.018;2023-03-01T06:20:05;0.40;99.90
23669;DHT22;12011;47.422;15.018;2023-03-01T06:22:39;-0.30;99.90
23669;DHT22;12011;47.422;15.018;2023-03-01T06:25:10;1.50;99.90
23669;DHT22;12011;47.422;15.018;2023-03-01T06:27:41;1.70;99.90
23669;DHT22;12011;47.422;15.018;2023-03-01T06:30:14;1.00;99.90
23669;DHT22;12011;47.422;15.018;2023-03-01T06:32:45;-0.20;99.90
23669;DHT22;12011;47.422;15.018;2023-03-01T06:35:15;2.80;99.90
23669;DHT22;12011;47.422;15.018;2023-03-01T06:37:48;0.90;99.90
23669;DHT22;12011;47.422;15.018;2023-03-01T06:40:18;0.60;99.90
23669;DHT22;12011;47.422;15.018;2023-03-01T06:42:49;1.70;99.90
23669;DHT22;12011;47.422;15.018;2023-03-01T06:45:21;2.00;99.90
23669;DHT22;12011;47.422;15.018;2023-03-01T06:47:50;1.60;99.90
23669;DHT22;12011;47.422;15.018;2023-03-01T06:50:20;2.30;99.90
23669;DHT22;12011;47.422;15.018;2023-03-01T06:52:55;1.90;99.90
23669;DHT22;12011;47.422;15.018;2023-03-01T06:55:25;1.50;99.90
23669;DHT22;12011;47.422;15.018;2023-03-01T06:57:55;2.00;99.90
23669;DHT22;12011;47.422;15.018;2023-03-01T07:00:26;1.40;99.90
23669;DHT22;12011;47.422;15.018;2023-03-01T07:02:59;0.60;99.90
23669;DHT22;12011;47.422;15.018;2023-03-01T07:05:29;0.70;99.90
23669;DHT22;12011;47.422;15.018;2023-03-01T07:08:02;2.60;99.90
23669;DHT22;12011;47.422;15.018;2023-03-01T07:10:32;1.50;99.90
23669;DHT22;12011;47.422;15.018;2023-03-01T07:13:03;2.20;99.90
23669;DHT22;12011;47.422;15.018;2023-03-01T07:15:32;2.10;99.90
23669;DHT22;12011;47.422;15.018;2023-03-01T07:18:02;1.30;99.90
23669;DHT22;12011;47.422;15.018;2023-03-01T07:20:31;0.30;99.90
23669;DHT22;12011;47.422;15.018;2023-03-01T07:23:06;0.80;99.90
23669;DHT22;12011;47.422;15.018;2023-03-01T07:25:35;1.80;99.90
23669;DHT22;12011;47.422;15.018;2023-03-01T07:28:05;2.30;99.90
23669;DHT22;12011;47.422;15.018;2023-03-01T07:30:34;1.00;99.90
23669;DHT22;12011;47.422;15.018;2023-03-01T07:33:03;2.90;99.90
23669;DHT22;12011;47.422;15.018;2023-03-01T07:35:33;1.90;99.90
23669;DHT22;12011;47.422;15.018;2023-03-01T07:38:05;1.20;99.90
23669;DHT22;12011;47.422;15.018;2023-03-01T07:40:35;0.90;99.90
23669;DHT22;12011;47.422;15.018;2023-03-01T07:43:04;1.40;99.90
23669;DHT22;12011;47.422;15.018;2023-03-01T07:45:34;2.00;99.90
23669;DHT22;12011;47.422;15.018;2023-03-01T07:48:03;1.90;99.90
23669;DHT22;12011;47.422;15.018;2023-03-01T07:50:35;0.30;99.90
23669;DHT22;12011;47.422;15.018;2023-03-01T07:53:08;2.80;99.90
23669;DHT22;12011;47.422;15.018;2023-03-01T07:55:38;1.40;99.90
23669;DHT22;12011;47.422;15.018;2023-03-01T07:58:07;2.90;99.90
23669;DHT22;12011;47.422;15.018;2023-03-01T08:00:36;1.30;99.90
23669;DHT22;12011;47.422;15.018;2023-03-01T08:03:06;2.40;99.90
23669;DHT22;12011;47.422;15.018;2023-03-01T08:05:35;2.10;99.90
23669;DHT22;12011;47.422;15.018;2023-03-01T08:08:07;2.20;99.90
23669;DHT22;12011;47.422;15.018;2023-03-01T08:10:37;2.00;99.90
23669;DHT22;12011;47.422;15.018;2023-03-01T08:13:06;1.90;99.90
23669;DHT22;12011;47.422;15.018;2023-03-01T08:15:36;1.30;99.90
23669;DHT22;12011;47.422;15.018;2023-03-01T08:18:05;0.50;99.90
23669;DHT22;12011;47.422;15.018;2023-03-01T08:20:35;1.90;99.90
23669;DHT22;12011;47.422;15.018;2023-03-01T08:23:07;0.70;99.90
23669;DHT22;12011;47.422;15.018;2023-03-01T08:25:37;2.80;99.90
23669;DHT22;12011;47.422;15.018;2023-03-01T08:28:07;2.00;99.90
23669;DHT22;12011;47.422;15.018;2023-03-01T08:30:36;2.90;99.90
23669;DHT22;12011;47.422;15.018;2023-03-01T08:33:06;2.40;99.90
23669;DHT22;12011;47.422;15.018;2023-03-01T08:35:35;3.10;99.90
23669;DHT22;12011;47.422;15.018;2023-03-01T08:38:07;1.70;99.90
23669;DHT22;12011;47.422;15.018;2023-03-01T08:40:37;1.50;99.90
23669;DHT22;12011;47.422;15.018;2023-03-01T08:43:06;1.50;99.90
23669;DHT22;12011;47.422;15.018;2023-03-01T08:45:35;0.70;99.90
23669;DHT22;12011;47.422;15.018;2023-03-01T08:48:05;3.20;99.90
23669;DHT22;12011;47.422;15.018;2023-03-01T08:50:34;1.30;99.90
23669;DHT22;12011;47.422;15.018;2023-03-01T08:53:04;2.30;99.90
23669;DHT22;12011;47.422;15.018;2023-03-01T08:55:36;2.50;99.90
23669;DHT22;12011;47.422;15.018;2023-03-01T08:58:05;2.40;99.90
23669;DHT22;12011;47.422;15.018;2023-03-01T09:00:34;2.20;99.90
23669;DHT22;12011;47.422;15.018;2023-03-01T09:03:04;1.70;99.90
23669;DHT22;12011;47.422;15.018;2023-03-01T09:05:34;2.00;99.90
23669;DHT22;12011;47.422;15.018;2023-03-01T09:08:06;2.20;99.40
23669;DHT22;12011;47.422;15.018;2023-03-01T09:10:38;1.90;97.60
23669;DHT22;12011;47.422;15.018;2023-03-01T09:13:08;2.40;99.00
23669;DHT22;12011;47.422;15.018;2023-03-01T09:15:37;2.90;99.20
23669;DHT22;12011;47.422;15.018;2023-03-01T09:18:07;2.20;98.60
23669;DHT22;12011;47.422;15.018;2023-03-01T09:20:36;1.50;96.00
23669;DHT22;12011;47.422;15.018;2023-03-01T09:23:08;2.40;93.90
23669;DHT22;12011;47.422;15.018;2023-03-01T09:25:38;4.30;97.50
23669;DHT22;12011;47.422;15.018;2023-03-01T09:28:07;2.60;96.50
23669;DHT22;12011;47.422;15.018;2023-03-01T09:30:37;3.30;96.20
23669;DHT22;12011;47.422;15.018;2023-03-01T09:33:06;2.40;92.30
23669;DHT22;12011;47.422;15.018;2023-03-01T09:35:40;2.50;91.90
23669;DHT22;12011;47.422;15.018;2023-03-01T09:38:15;3.30;95.10
23669;DHT22;12011;47.422;15.018;2023-03-01T09:40:45;3.40;92.20
23669;DHT22;12011;47.422;15.018;2023-03-01T09:43:22;3.10;91.70
23669;DHT22;12011;47.422;15.018;2023-03-01T09:46:00;3.00;90.60
23669;DHT22;12011;47.422;15.018;2023-03-01T09:48:41;3.10;87.80
23669;DHT22;12011;47.422;15.018;2023-03-01T09:51:19;4.90;90.40
23669;DHT22;12011;47.422;15.018;2023-03-01T09:53:55;3.00;90.70
23669;DHT22;12011;47.422;15.018;2023-03-01T09:56:33;3.40;86.80
23669;DHT22;12011;47.422;15.018;2023-03-01T09:59:19;3.40;86.80
23669;DHT22;12011;47.422;15.018;2023-03-01T10:02:04;3.70;88.90
23669;DHT22;12011;47.422;15.018;2023-03-01T10:04:49;4.40;82.30
23669;DHT22;12011;47.422;15.018;2023-03-01T10:07:30;3.70;80.30
23669;DHT22;12011;47.422;15.018;2023-03-01T10:10:11;3.60;78.40
23669;DHT22;12011;47.422;15.018;2023-03-01T10:12:47;3.50;77.40
23669;DHT22;12011;47.422;15.018;2023-03-01T10:15:28;3.20;85.20
23669;DHT22;12011;47.422;15.018;2023-03-01T10:18:09;3.90;82.30
23669;DHT22;12011;47.422;15.018;2023-03-01T10:20:50;3.40;81.50
23669;DHT22;12011;47.422;15.018;2023-03-01T10:23:23;4.50;79.80
23669;DHT22;12011;47.422;15.018;2023-03-01T10:29:15;4.60;76.80
23669;DHT22;12011;47.422;15.018;2023-03-01T10:31:47;3.70;74.60
23669;DHT22;12011;47.422;15.018;2023-03-01T10:34:20;4.40;77.80
23669;DHT22;12011;47.422;15.018;2023-03-01T10:36:55;5.00;78.30
23669;DHT22;12011;47.422;15.018;2023-03-01T10:39:26;4.00;69.90
23669;DHT22;12011;47.422;15.018;2023-03-01T10:42:01;5.40;71.40
23669;DHT22;12011;47.422;15.018;2023-03-01T10:44:39;4.80;72.40
23669;DHT22;12011;47.422;15.018;2023-03-01T10:47:19;4.40;72.90
23669;DHT22;12011;47.422;15.018;2023-03-01T10:49:59;5.40;70.00
23669;DHT22;12011;47.422;15.018;2023-03-01T10:52:33;4.50;74.60
23669;DHT22;12011;47.422;15.018;2023-03-01T10:55:24;4.50;75.00
23669;DHT22;12011;47.422;15.018;2023-03-01T10:58:16;5.00;78.40
23669;DHT22;12011;47.422;15.018;2023-03-01T11:00:51;4.80;78.60
23669;DHT22;12011;47.422;15.018;2023-03-01T11:03:26;4.90;71.00
23669;DHT22;12011;47.422;15.018;2023-03-01T11:06:00;4.50;73.90
23669;DHT22;12011;47.422;15.018;2023-03-01T11:08:41;4.90;72.60
23669;DHT22;12011;47.422;15.018;2023-03-01T11:11:21;4.70;75.00
23669;DHT22;12011;47.422;15.018;2023-03-01T11:14:06;4.20;75.70
23669;DHT22;12011;47.422;15.018;2023-03-01T11:16:38;4.80;74.60
23669;DHT22;12011;47.422;15.018;2023-03-01T11:19:20;4.10;82.70
23669;DHT22;12011;47.422;15.018;2023-03-01T11:21:57;3.60;79.90
23669;DHT22;12011;47.422;15.018;2023-03-01T11:24:37;3.40;76.50
23669;DHT22;12011;47.422;15.018;2023-03-01T11:27:17;4.30;86.30
23669;DHT22;12011;47.422;15.018;2023-03-01T11:29:55;3.80;80.80
23669;DHT22;12011;47.422;15.018;2023-03-01T11:32:32;3.40;80.40
23669;DHT22;12011;47.422;15.018;2023-03-01T11:35:13;3.50;82.50
23669;DHT22;12011;47.422;15.018;2023-03-01T11:37:59;3.60;84.20
23669;DHT22;12011;47.422;15.018;2023-03-01T11:40:38;3.50;81.10
23669;DHT22;12011;47.422;15.018;2023-03-01T11:43:16;3.20;83.50
23669;DHT22;12011;47.422;15.018;2023-03-01T11:49:29;3.40;85.40
23669;DHT22;12011;47.422;15.018;2023-03-01T11:52:20;3.60;76.90
23669;DHT22;12011;47.422;15.018;2023-03-01T11:55:17;3.60;80.60
23669;DHT22;12011;47.422;15.018;2023-03-01T11:58:17;3.80;84.40
23669;DHT22;12011;47.422;15.018;2023-03-01T12:01:27;4.00;77.60
23669;DHT22;12011;47.422;15.018;2023-03-01T12:04:36;4.50;84.00
23669;DHT22;12011;47.422;15.018;2023-03-01T12:07:34;4.40;86.30
23669;DHT22;12011;47.422;15.018;2023-03-01T12:10:23;4.10;83.10
23669;DHT22;12011;47.422;15.018;2023-03-01T12:13:13;4.30;77.60
23669;DHT22;12011;47.422;15.018;2023-03-01T12:16:19;4.30;79.90
23669;DHT22;12011;47.422;15.018;2023-03-01T12:19:21;4.30;88.50
23669;DHT22;12011;47.422;15.018;2023-03-01T12:22:21;5.10;78.90
23669;DHT22;12011;47.422;15.018;2023-03-01T12:25:16;4.50;77.00
23669;DHT22;12011;47.422;15.018;2023-03-01T12:34:46;3.00;77.40
23669;DHT22;12011;47.422;15.018;2023-03-01T12:37:40;4.30;82.80
23669;DHT22;12011;47.422;15.018;2023-03-01T12:40:45;4.20;76.80
23669;DHT22;12011;47.422;15.018;2023-03-01T12:43:33;4.20;78.90
23669;DHT22;12011;47.422;15.018;2023-03-01T12:46:21;5.00;79.80
23669;DHT22;12011;47.422;15.018;2023-03-01T12:49:08;4.50;77.90
23669;DHT22;12011;47.422;15.018;2023-03-01T12:51:40;5.00;84.30
23669;DHT22;12011;47.422;15.018;2023-03-01T12:54:26;4.50;78.70
23669;DHT22;12011;47.422;15.018;2023-03-01T12:57:06;5.70;74.20
23669;DHT22;12011;47.422;15.018;2023-03-01T12:59:42;4.60;70.40
23669;DHT22;12011;47.422;15.018;2023-03-01T13:02:24;4.80;71.00
23669;DHT22;12011;47.422;15.018;2023-03-01T13:05:26;4.70;75.20
23669;DHT22;12011;47.422;15.018;2023-03-01T13:08:12;5.20;70.10
23669;DHT22;12011;47.422;15.018;2023-03-01T13:10:49;4.70;75.60
23669;DHT22;12011;47.422;15.018;2023-03-01T13:13:22;5.40;71.40
23669;DHT22;12011;47.422;15.018;2023-03-01T13:15:53;5.70;72.50
23669;DHT22;12011;47.422;15.018;2023-03-01T13:18:31;4.70;74.80
23669;DHT22;12011;47.422;15.018;2023-03-01T13:21:04;4.80;76.60
23669;DHT22;12011;47.422;15.018;2023-03-01T13:23:37;4.90;72.80
23669;DHT22;12011;47.422;15.018;2023-03-01T13:26:14;5.00;73.80
23669;DHT22;12011;47.422;15.018;2023-03-01T13:28:55;5.80;74.60
23669;DHT22;12011;47.422;15.018;2023-03-01T13:34:47;5.10;72.80
23669;DHT22;12011;47.422;15.018;2023-03-01T13:43:32;5.80;72.20
23669;DHT22;12011;47.422;15.018;2023-03-01T13:46:10;5.00;76.70
23669;DHT22;12011;47.422;15.018;2023-03-01T13:48:47;5.90;71.70
23669;DHT22;12011;47.422;15.018;2023-03-01T13:51:24;5.80;70.00
23669;DHT22;12011;47.422;15.018;2023-03-01T13:53:59;5.30;74.00
23669;DHT22;12011;47.422;15.018;2023-03-01T13:56:36;5.90;71.60
23669;DHT22;12011;47.422;15.018;2023-03-01T13:59:16;5.20;68.70
23669;DHT22;12011;47.422;15.018;2023-03-01T14:01:53;5.30;70.70
23669;DHT22;12011;47.422;15.018;2023-03-01T14:04:26;5.40;70.90
23669;DHT22;12011;47.422;15.018;2023-03-01T14:07:12;5.50;73.00
23669;DHT22;12011;47.422;15.018;2023-03-01T14:09:53;5.40;66.10
23669;DHT22;12011;47.422;15.018;2023-03-01T14:12:39;5.60;70.80
23669;DHT22;12011;47.422;15.018;2023-03-01T14:15:22;5.30;69.00
23669;DHT22;12011;47.422;15.018;2023-03-01T14:18:02;6.00;69.40
23669;DHT22;12011;47.422;15.018;2023-03-01T14:20:39;6.00;69.30
23669;DHT22;12011;47.422;15.018;2023-03-01T14:23:15;5.90;69.10
23669;DHT22;12011;47.422;15.018;2023-03-01T14:25:52;4.90;70.20
23669;DHT22;12011;47.422;15.018;2023-03-01T14:28:24;5.90;72.50
23669;DHT22;12011;47.422;15.018;2023-03-01T14:30:58;5.70;75.80
23669;DHT22;12011;47.422;15.018;2023-03-01T14:33:30;5.40;73.80
23669;DHT22;12011;47.422;15.018;2023-03-01T14:36:05;5.70;71.50
23669;DHT22;12011;47.422;15.018;2023-03-01T14:38:37;5.00;72.80
23669;DHT22;12011;47.422;15.018;2023-03-01T14:41:14;5.10;72.00
23669;DHT22;12011;47.422;15.018;2023-03-01T14:43:47;5.20;78.90
23669;DHT22;12011;47.422;15.018;2023-03-01T14:46:22;4.70;77.60
23669;DHT22;12011;47.422;15.018;2023-03-01T14:48:57;5.10;70.90
23669;DHT22;12011;47.422;15.018;2023-03-01T14:51:36;5.10;73.60
23669;DHT22;12011;47.422;15.018;2023-03-01T14:54:20;6.00;73.30
23669;DHT22;12011;47.422;15.018;2023-03-01T14:57:00;5.60;73.30
23669;DHT22;12011;47.422;15.018;2023-03-01T14:59:29;4.60;74.80
23669;DHT22;12011;47.422;15.018;2023-03-01T15:02:03;5.20;79.40
23669;DHT22;12011;47.422;15.018;2023-03-01T15:04:32;5.50;78.50
23669;DHT22;12011;47.422;15.018;2023-03-01T15:07:02;4.50;80.90
23669;DHT22;12011;47.422;15.018;2023-03-01T15:09:36;4.70;78.60
23669;DHT22;12011;47.422;15.018;2023-03-01T15:12:40;4.70;83.90
23669;DHT22;12011;47.422;15.018;2023-03-01T15:15:31;4.50;81.30
23669;DHT22;12011;47.422;15.018;2023-03-01T15:18:13;3.90;84.10
23669;DHT22;12011;47.422;15.018;2023-03-01T15:20:46;3.90;84.90
23669;DHT22;12011;47.422;15.018;2023-03-01T15:23:21;4.20;86.10
23669;DHT22;12011;47.422;15.018;2023-03-01T15:25:54;4.40;85.10
23669;DHT22;12011;47.422;15.018;2023-03-01T15:28:33;3.90;88.00
23669;DHT22;12011;47.422;15.018;2023-03-01T15:31:22;4.20;89.10
23669;DHT22;12011;47.422;15.018;2023-03-01T15:33:58;4.10;88.50
23669;DHT22;12011;47.422;15.018;2023-03-01T15:36:42;4.20;88.30
23669;DHT22;12011;47.422;15.018;2023-03-01T15:39:37;4.10;88.60
23669;DHT22;12011;47.422;15.018;2023-03-01T15:42:17;3.60;85.30
23669;DHT22;12011;47.422;15.018;2023-03-01T15:45:09;4.50;87.10
23669;DHT22;12011;47.422;15.018;2023-03-01T15:47:41;4.30;88.30
23669;DHT22;12011;47.422;15.018;2023-03-01T15:50:22;4.10;87.20
23669;DHT22;12011;47.422;15.018;2023-03-01T15:52:54;4.70;90.60
23669;DHT22;12011;47.422;15.018;2023-03-01T15:55:26;5.00;88.40
23669;DHT22;12011;47.422;15.018;2023-03-01T15:58:05;4.10;90.00
23669;DHT22;12011;47.422;15.018;2023-03-01T16:00:39;4.30;90.70
23669;DHT22;12011;47.422;15.018;2023-03-01T16:03:10;4.20;86.60
23669;DHT22;12011;47.422;15.018;2023-03-01T16:05:40;3.90;88.70
23669;DHT22;12011;47.422;15.018;2023-03-01T16:08:10;3.60;86.90
23669;DHT22;12011;47.422;15.018;2023-03-01T16:10:40;4.40;86.80
23669;DHT22;12011;47.422;15.018;2023-03-01T16:13:13;3.80;92.20
23669;DHT22;12011;47.422;15.018;2023-03-01T16:15:43;4.40;95.70
23669;DHT22;12011;47.422;15.018;2023-03-01T16:18:12;4.30;96.40
23669;DHT22;12011;47.422;15.018;2023-03-01T16:20:42;4.20;93.90
23669;DHT22;12011;47.422;15.018;2023-03-01T16:23:12;4.10;93.20
23669;DHT22;12011;47.422;15.018;2023-03-01T16:25:41;4.70;98.70
23669;DHT22;12011;47.422;15.018;2023-03-01T16:28:13;3.70;99.90
23669;DHT22;12011;47.422;15.018;2023-03-01T16:30:46;3.90;99.90
23669;DHT22;12011;47.422;15.018;2023-03-01T16:33:16;3.20;99.90
23669;DHT22;12011;47.422;15.018;2023-03-01T16:35:46;3.50;99.90
23669;DHT22;12011;47.422;15.018;2023-03-01T16:38:15;3.70;99.90
23669;DHT22;12011;47.422;15.018;2023-03-01T16:40:48;3.40;99.90
23669;DHT22;12011;47.422;15.018;2023-03-01T16:43:20;3.30;99.90
23669;DHT22;12011;47.422;15.018;2023-03-01T16:45:50;3.10;99.90
23669;DHT22;12011;47.422;15.018;2023-03-01T16:48:20;3.10;99.90